Crystal Springs, North Dakota
Current Conditions -  °F | °C
As of 3:56 AM on Saturday 20 Dec 2014 (Local Time) from KJMS Reporting Station
Moderate Fog Moderate Fog  
Wind Chill: 22°   Ceiling: 200
Heat Index: 22°   Visibility: 0.25mi
Dew Point: 20°   Wind: 0mph
Humidity: 92%   Direction: NA
Pressure: 29.97"   Gusts: NA
Location:  46.8928°N, 99.3208°W
Report Text: KJMS 200956Z AUTO 00000KT 1/4SM FZFG VV002 M06/M07 A2997 RMK AO2 SLP170 I1000 T10561067
Loading
Personal Weather Stations






























Interactive Weather Map New forecast layout! Learn more

10-Day Weather Forecast

Advertisements
Track Severe Weather on mobile